Time;durP1;ratioP1;P1;durP2;ratioP2;P2;SDS_P1;SDS_P2;PMS_P1;PMS_P2;Temp;Humidity;BMP_temperature;BMP_pressure;BME280_temperature;BME280_humidity;BME280_pressure;Samples;Min_cycle;Max_cycle;Signal;HPM_P1;HPM_P2
2021/11/12 00:02:11;;;;;;;13.67;7.67;;;9.10;99.90;;;;;;5170487;28;20207;-66
2021/11/12 00:13:17;;;;;;;11.13;6.10;;;9.10;99.90;;;;;;5173422;28;20483;-63
2021/11/12 00:15:55;;;;;;;10.07;6.03;;;9.10;99.90;;;;;;5171930;28;20230;-64
2021/11/12 00:18:31;;;;;;;11.87;6.63;;;9.10;99.90;;;;;;5187460;28;20214;-65
2021/11/12 00:21:04;;;;;;;13.57;6.17;;;9.10;99.90;;;;;;5187794;28;20577;-65
2021/11/12 00:23:39;;;;;;;8.13;5.27;;;9.10;99.90;;;;;;5187878;28;20187;-68
2021/11/12 00:26:11;;;;;;;12.13;5.30;;;9.10;99.90;;;;;;5180295;28;20201;-69
2021/11/12 00:28:52;;;;;;;11.07;5.67;;;9.20;99.90;;;;;;5181964;28;20498;-64
2021/11/12 00:37:04;;;;;;;11.87;6.13;;;9.20;99.90;;;;;;5174951;28;20666;-66
2021/11/12 00:39:49;;;;;;;11.77;6.03;;;9.20;99.90;;;;;;5184230;28;20217;-65
2021/11/12 00:42:54;;;;;;;12.80;5.87;;;9.20;99.90;;;;;;5179642;28;20647;-66
2021/11/12 00:45:22;;;;;;;11.33;5.77;;;9.20;99.90;;;;;;5180917;28;20203;-64
2021/11/12 00:47:57;;;;;;;12.27;5.50;;;9.30;99.90;;;;;;5170822;28;20237;-66
2021/11/12 00:50:34;;;;;;;13.87;6.53;;;9.30;99.90;;;;;;5186105;28;20191;-64
2021/11/12 00:55:47;;;;;;;9.33;5.80;;;9.30;99.90;;;;;;5187181;28;20618;-67
2021/11/12 00:58:19;;;;;;;11.53;6.10;;;9.30;99.90;;;;;;5186824;28;20244;-65
2021/11/12 01:00:51;;;;;;;8.87;5.30;;;9.30;99.90;;;;;;5170298;28;20225;-66
2021/11/12 01:03:24;;;;;;;11.37;6.67;;;9.30;99.90;;;;;;5186253;28;20314;-66
2021/11/12 01:05:58;;;;;;;10.23;5.67;;;9.30;99.90;;;;;;5169994;28;20250;-63
2021/11/12 01:08:31;;;;;;;12.23;5.60;;;9.30;99.90;;;;;;5187005;28;20681;-64
2021/11/12 01:11:04;;;;;;;11.00;5.60;;;9.20;99.90;;;;;;5186542;28;20215;-63
2021/11/12 01:13:37;;;;;;;10.43;6.10;;;9.30;99.90;;;;;;5169841;28;20241;-66
2021/11/12 01:16:10;;;;;;;9.63;5.50;;;9.20;99.90;;;;;;5187188;28;20218;-65
2021/11/12 01:18:47;;;;;;;11.43;5.70;;;9.20;99.90;;;;;;5190718;28;20685;-66
2021/11/12 01:21:20;;;;;;;11.37;6.00;;;9.20;99.90;;;;;;5190188;28;20223;-64
2021/11/12 01:23:54;;;;;;;14.07;5.50;;;9.10;99.90;;;;;;5189674;28;20238;-66
2021/11/12 01:26:29;;;;;;;13.70;5.80;;;9.00;99.90;;;;;;5190155;28;20239;-67
2021/11/12 01:29:03;;;;;;;10.10;5.43;;;9.00;99.90;;;;;;5189906;28;20539;-65
2021/11/12 01:31:35;;;;;;;13.40;5.80;;;9.00;99.90;;;;;;5190560;28;20538;-66
2021/11/12 01:34:09;;;;;;;10.83;5.40;;;9.00;99.90;;;;;;5189014;28;20238;-68
2021/11/12 01:36:44;;;;;;;13.70;5.60;;;9.00;99.90;;;;;;5189683;28;20214;-64
2021/11/12 01:39:20;;;;;;;12.87;5.50;;;9.00;99.90;;;;;;5190766;28;20565;-66
2021/11/12 01:41:58;;;;;;;13.50;5.00;;;9.10;99.90;;;;;;5190486;28;20226;-71
2021/11/12 01:44:35;;;;;;;10.70;4.80;;;9.10;99.90;;;;;;5189615;28;20227;-69
2021/11/12 01:47:25;;;;;;;10.63;4.13;;;9.00;99.90;;;;;;5190075;28;20195;-66
2021/11/12 01:50:03;;;;;;;8.40;3.87;;;9.00;99.90;;;;;;5189105;28;20238;-65
2021/11/12 01:52:41;;;;;;;9.97;3.83;;;8.90;99.90;;;;;;5189676;28;20214;-63
2021/11/12 01:55:27;;;;;;;16.57;4.87;;;8.90;99.90;;;;;;5189614;28;20257;-66
2021/11/12 02:00:35;;;;;;;8.53;4.00;;;8.80;99.90;;;;;;5189865;28;20519;-67
2021/11/12 02:03:09;;;;;;;11.30;4.00;;;8.80;99.90;;;;;;5189682;28;20603;-63
2021/11/12 02:05:41;;;;;;;15.80;3.90;;;8.80;99.90;;;;;;5189067;28;20261;-67
2021/11/12 02:08:13;;;;;;;9.93;3.37;;;8.80;99.90;;;;;;5189433;28;20207;-65
2021/11/12 02:10:45;;;;;;;12.73;3.43;;;8.80;99.90;;;;;;5189547;28;20231;-67
2021/11/12 02:13:20;;;;;;;14.83;3.20;;;8.90;99.90;;;;;;5189000;28;20611;-66
2021/11/12 02:15:52;;;;;;;11.50;3.43;;;8.90;99.90;;;;;;5172252;28;20701;-64
2021/11/12 02:18:29;;;;;;;10.27;2.93;;;8.80;99.90;;;;;;5171904;28;20207;-68
2021/11/12 02:26:25;;;;;;;9.67;2.97;;;8.80;99.90;;;;;;5189087;28;20597;-66
2021/11/12 02:28:59;;;;;;;10.97;2.80;;;8.80;99.90;;;;;;5188917;28;20218;-67
2021/11/12 02:31:31;;;;;;;8.07;2.97;;;8.80;99.90;;;;;;5188867;28;20227;-65
2021/11/12 02:34:10;;;;;;;15.23;3.90;;;8.80;99.90;;;;;;5188593;28;20207;-65
2021/11/12 02:36:44;;;;;;;11.67;3.17;;;8.80;99.90;;;;;;5188928;28;20635;-65
2021/11/12 02:39:16;;;;;;;8.37;3.13;;;8.80;99.90;;;;;;5188471;28;20211;-64
2021/11/12 02:41:48;;;;;;;8.17;3.20;;;8.80;99.90;;;;;;5189014;28;20273;-67
2021/11/12 02:44:20;;;;;;;14.03;3.60;;;8.80;99.90;;;;;;5189094;28;20206;-62
2021/11/12 02:46:53;;;;;;;11.07;3.60;;;8.80;99.90;;;;;;5188988;28;20245;-64
2021/11/12 02:49:25;;;;;;;12.57;3.10;;;8.80;99.90;;;;;;5188852;28;20207;-68
2021/11/12 02:52:00;;;;;;;13.33;3.40;;;8.80;99.90;;;;;;5187976;28;20245;-67
2021/11/12 02:54:33;;;;;;;7.67;3.00;;;8.80;99.90;;;;;;5188810;28;20214;-65
2021/11/12 02:57:06;;;;;;;11.43;3.13;;;8.80;99.90;;;;;;5171284;28;20227;-65
2021/11/12 02:59:39;;;;;;;7.23;2.70;;;8.80;99.90;;;;;;5171270;28;20219;-66
2021/11/12 03:02:11;;;;;;;8.67;2.33;;;8.90;99.90;;;;;;5188127;28;20657;-64
2021/11/12 03:04:44;;;;;;;9.33;2.37;;;8.80;99.90;;;;;;5187927;28;20327;-65
2021/11/12 03:07:16;;;;;;;11.80;2.60;;;8.80;99.90;;;;;;5187718;28;20227;-66
2021/11/12 03:09:50;;;;;;;6.60;2.63;;;8.90;99.90;;;;;;5188323;28;20211;-68
2021/11/12 03:12:23;;;;;;;13.07;2.43;;;8.80;99.90;;;;;;5187159;28;20246;-68
2021/11/12 03:14:57;;;;;;;11.20;2.00;;;8.80;99.90;;;;;;5188878;28;20236;-68
2021/11/12 03:17:33;;;;;;;8.93;2.30;;;8.70;99.90;;;;;;5188686;28;20523;-64
2021/11/12 03:20:07;;;;;;;9.60;2.07;;;8.70;99.90;;;;;;5188069;28;20201;-65
2021/11/12 03:22:47;;;;;;;11.40;2.23;;;8.80;99.90;;;;;;5187744;28;20230;-65
2021/11/12 03:25:43;;;;;;;8.27;2.37;;;8.70;99.90;;;;;;5188136;28;20586;-67
2021/11/12 03:28:22;;;;;;;9.10;3.23;;;8.70;99.90;;;;;;5187732;28;20234;-66
2021/11/12 03:59:46;;;;;;;12.50;3.43;;;8.20;99.90;;;;;;5187803;28;20187;-66
2021/11/12 04:05:31;;;;;;;7.43;2.17;;;8.10;99.90;;;;;;5187428;28;20756;-68
2021/11/12 05:33:41;;;;;;;7.80;2.17;;;7.40;99.90;;;;;;5127741;29;20213;-63
2021/11/12 05:55:32;;;;;;;10.47;2.30;;;7.00;99.90;;;;;;5188905;28;20210;-65
2021/11/12 05:58:06;;;;;;;7.27;2.40;;;7.00;99.90;;;;;;5188617;28;20265;-68
2021/11/12 06:00:38;;;;;;;14.30;2.97;;;6.90;99.90;;;;;;5172350;28;20217;-65
2021/11/12 06:03:16;;;;;;;7.43;2.47;;;7.00;99.90;;;;;;5171862;28;20519;-67
2021/11/12 06:05:48;;;;;;;10.50;2.30;;;6.90;99.90;;;;;;5172164;28;20203;-66
2021/11/12 06:08:21;;;;;;;10.53;2.20;;;6.90;99.90;;;;;;5189742;28;20213;-62
2021/11/12 06:10:53;;;;;;;7.03;2.53;;;7.00;99.90;;;;;;5172724;28;20207;-64
2021/11/12 06:13:28;;;;;;;9.50;2.40;;;7.00;99.90;;;;;;5189240;28;20203;-65
2021/11/12 06:16:00;;;;;;;10.67;3.03;;;7.00;99.90;;;;;;5172238;28;20610;-63
2021/11/12 06:18:33;;;;;;;15.27;3.03;;;7.00;99.90;;;;;;5189299;28;20265;-61
2021/11/12 06:21:05;;;;;;;10.57;2.67;;;7.00;99.90;;;;;;5189612;28;20533;-68
2021/11/12 06:23:37;;;;;;;12.57;2.57;;;7.10;99.90;;;;;;5189483;28;20238;-64
2021/11/12 06:26:10;;;;;;;10.87;3.23;;;7.10;99.90;;;;;;5189037;28;20217;-63
2021/11/12 06:28:42;;;;;;;13.87;2.60;;;7.10;99.90;;;;;;5189798;28;20221;-63
2021/11/12 06:31:14;;;;;;;12.00;3.10;;;7.10;99.90;;;;;;5189402;28;20198;-65
2021/11/12 06:33:48;;;;;;;13.57;2.83;;;7.20;99.90;;;;;;5172299;28;20245;-65
2021/11/12 06:36:21;;;;;;;10.37;3.00;;;7.30;99.90;;;;;;5189204;28;20603;-63
2021/11/12 06:38:54;;;;;;;9.20;2.20;;;7.40;99.90;;;;;;5189157;28;20227;-66
2021/11/12 06:42:15;;;;;;;23.23;3.43;;;7.50;99.90;;;;;;5188955;28;20237;-62
2021/11/12 06:44:28;;;;;;;8.83;2.40;;;7.60;99.90;;;;;;5178407;28;20202;-63
2021/11/12 06:50:12;;;;;;;13.20;2.07;;;7.80;99.90;;;;;;5188373;28;20191;-63
2021/11/12 06:52:51;;;;;;;7.20;2.07;;;7.90;99.90;;;;;;5188431;28;20183;-63
2021/11/12 06:55:23;;;;;;;8.63;2.30;;;8.10;99.90;;;;;;5171661;28;20649;-63
2021/11/12 06:57:58;;;;;;;16.30;2.60;;;8.10;99.90;;;;;;5188122;28;20207;-64
2021/11/12 07:00:30;;;;;;;10.83;2.80;;;8.20;99.90;;;;;;5187364;28;20209;-63
2021/11/12 07:03:02;;;;;;;8.60;2.30;;;8.30;99.90;;;;;;5170847;28;20252;-62
2021/11/12 07:05:36;;;;;;;11.10;2.77;;;8.40;99.90;;;;;;5171493;28;20242;-63
2021/11/12 07:08:10;;;;;;;11.77;2.77;;;8.60;99.90;;;;;;5180219;28;20214;-65
2021/11/12 07:10:43;;;;;;;13.00;2.40;;;8.70;99.90;;;;;;5188691;28;20203;-68
2021/11/12 07:13:17;;;;;;;10.30;2.70;;;8.70;99.90;;;;;;5171055;28;20207;-66
2021/11/12 07:15:49;;;;;;;11.30;2.30;;;8.80;99.90;;;;;;5187949;28;20194;-64
2021/11/12 07:18:23;;;;;;;12.43;2.70;;;8.90;99.90;;;;;;5170733;28;20211;-62
2021/11/12 07:20:55;;;;;;;11.77;2.50;;;8.90;99.90;;;;;;5188087;28;20210;-65
2021/11/12 07:23:31;;;;;;;10.87;2.37;;;8.90;99.90;;;;;;5188158;28;20233;-64
2021/11/12 07:26:03;;;;;;;9.77;2.00;;;9.00;99.90;;;;;;5187933;28;20234;-66
2021/11/12 07:28:36;;;;;;;13.77;2.50;;;9.00;99.90;;;;;;5171296;28;20207;-66
2021/11/12 07:31:10;;;;;;;10.97;2.87;;;9.00;99.90;;;;;;5187158;28;20218;-60
2021/11/12 07:33:45;;;;;;;13.40;2.83;;;9.00;99.90;;;;;;5172199;28;20234;-66
2021/11/12 07:36:22;;;;;;;17.17;3.87;;;9.00;99.90;;;;;;5188597;28;20202;-62
2021/11/12 07:39:00;;;;;;;13.07;3.43;;;9.00;99.90;;;;;;5187986;28;20201;-63
2021/11/12 07:47:14;;;;;;;13.97;2.67;;;9.10;99.90;;;;;;5187634;28;20836;-67
2021/11/12 07:49:50;;;;;;;13.50;2.87;;;9.00;99.90;;;;;;5187334;28;20206;-68
2021/11/12 07:52:27;;;;;;;14.07;2.90;;;9.10;99.90;;;;;;5187626;28;20202;-68
2021/11/12 07:54:59;;;;;;;13.53;3.00;;;9.10;99.90;;;;;;5170372;28;20191;-67
2021/11/12 07:57:32;;;;;;;15.57;3.10;;;9.10;99.90;;;;;;5187402;28;20207;-71
2021/11/12 08:00:08;;;;;;;10.30;3.00;;;9.10;99.90;;;;;;5187452;28;20202;-73
2021/11/12 08:02:40;;;;;;;14.80;3.30;;;9.10;99.90;;;;;;5179749;28;20210;-72
2021/11/12 08:05:18;;;;;;;11.87;2.53;;;9.10;99.90;;;;;;5164550;28;20271;-71
2021/11/12 08:07:54;;;;;;;15.97;2.70;;;9.20;99.90;;;;;;5167922;28;20200;-49
2021/11/12 08:10:29;;;;;;;11.90;2.90;;;9.20;99.90;;;;;;5150621;28;20235;-69
2021/11/12 08:13:11;;;;;;;15.93;3.03;;;9.10;99.90;;;;;;5170607;28;20567;-69
2021/11/12 08:18:35;;;;;;;10.27;2.63;;;9.00;99.90;;;;;;5167962;28;20207;-69
2021/11/12 08:21:43;;;;;;;16.60;3.00;;;9.00;99.90;;;;;;5167429;28;20232;-67
2021/11/12 08:27:04;;;;;;;12.43;3.13;;;9.00;99.90;;;;;;5165799;28;20232;-68
2021/11/12 08:40:56;;;;;;;15.30;2.80;;;9.50;99.90;;;;;;5171601;28;20309;-69
2021/11/12 08:49:02;;;;;;;18.43;2.43;;;9.80;99.90;;;;;;5140002;28;20650;-72
2021/11/12 08:51:35;;;;;;;10.40;2.40;;;9.80;99.90;;;;;;5172272;28;20294;-67
2021/11/12 08:54:08;;;;;;;14.30;2.50;;;9.90;99.90;;;;;;5190207;28;20207;-71
2021/11/12 08:56:41;;;;;;;10.03;2.50;;;9.90;99.90;;;;;;5184690;28;20221;-72
2021/11/12 08:59:13;;;;;;;14.47;2.90;;;9.90;99.90;;;;;;5157557;28;20610;-69
2021/11/12 09:01:45;;;;;;;13.30;2.40;;;10.00;99.90;;;;;;5191115;28;20218;-67
2021/11/12 09:04:18;;;;;;;14.40;2.20;;;10.00;99.90;;;;;;5173459;28;20235;-69
2021/11/12 09:06:50;;;;;;;9.83;2.13;;;10.00;99.90;;;;;;5189786;28;20218;-70
2021/11/12 09:09:22;;;;;;;12.00;2.50;;;10.00;99.90;;;;;;5173560;28;20562;-69
2021/11/12 09:11:57;;;;;;;11.97;2.30;;;10.10;99.90;;;;;;5190671;28;20295;-69
2021/11/12 09:14:30;;;;;;;10.83;2.33;;;10.20;99.90;;;;;;5173397;28;20230;-74
2021/11/12 09:17:05;;;;;;;9.10;2.23;;;10.30;99.90;;;;;;5173417;28;20272;-67
2021/11/12 09:19:45;;;;;;;13.30;3.20;;;10.30;99.90;;;;;;5190656;28;20226;-69
2021/11/12 09:22:23;;;;;;;16.07;2.37;;;10.40;99.90;;;;;;5173341;28;20222;-72
2021/11/12 09:24:55;;;;;;;12.27;2.10;;;10.40;99.90;;;;;;5173311;28;20231;-70
2021/11/12 09:27:30;;;;;;;16.23;2.20;;;10.50;99.90;;;;;;5175018;28;20198;-69
2021/11/12 09:30:08;;;;;;;10.77;2.13;;;10.60;99.90;;;;;;5190861;28;20233;-69
2021/11/12 09:32:43;;;;;;;8.87;2.50;;;10.60;99.90;;;;;;5190517;28;20194;-70
2021/11/12 09:35:21;;;;;;;11.07;2.50;;;10.60;99.90;;;;;;5173364;28;20230;-71
2021/11/12 09:37:53;;;;;;;11.67;1.83;;;10.70;99.90;;;;;;5172659;28;20222;-70
2021/11/12 09:40:25;;;;;;;13.30;2.30;;;10.70;99.90;;;;;;5190314;28;20226;-71
2021/11/12 09:43:01;;;;;;;11.40;2.10;;;10.80;99.90;;;;;;5190528;28;20492;-71
2021/11/12 09:45:36;;;;;;;17.93;2.73;;;10.80;99.90;;;;;;5189941;28;20558;-70
2021/11/12 09:48:09;;;;;;;8.33;1.60;;;10.90;99.90;;;;;;5173370;28;20195;-67
2021/11/12 09:50:44;;;;;;;10.80;2.00;;;10.90;99.90;;;;;;5190005;28;20674;-68
2021/11/12 09:53:16;;;;;;;10.20;2.00;;;10.80;99.90;;;;;;5172992;28;20206;-70
2021/11/12 09:55:54;;;;;;;13.13;2.23;;;10.80;99.90;;;;;;5189643;28;20243;-69
2021/11/12 09:58:26;;;;;;;14.00;2.43;;;10.70;99.90;;;;;;5190126;28;20715;-70
2021/11/12 10:01:00;;;;;;;13.30;2.60;;;10.60;99.90;;;;;;5191193;28;20242;-70
2021/11/12 10:03:33;;;;;;;17.00;2.87;;;10.50;99.90;;;;;;5193258;28;20276;-70
2021/11/12 10:06:26;;;;;;;11.53;2.43;;;10.60;99.90;;;;;;5191679;28;20261;-70
2021/11/12 10:09:11;;;;;;;9.53;2.07;;;10.70;99.90;;;;;;5189996;28;20214;-71
2021/11/12 10:11:53;;;;;;;6.37;2.30;;;10.70;99.90;;;;;;5172490;28;20348;-73
2021/11/12 10:15:03;;;;;;;14.70;2.13;;;10.70;99.90;;;;;;5189623;28;20203;-69
2021/11/12 10:17:31;;;;;;;7.80;2.00;;;10.70;99.90;;;;;;5189687;28;20702;-69
2021/11/12 10:20:08;;;;;;;7.87;1.87;;;10.70;99.90;;;;;;5189452;28;20194;-71
2021/11/12 10:22:43;;;;;;;12.23;1.90;;;10.70;99.90;;;;;;5189911;28;20207;-67
2021/11/12 10:25:16;;;;;;;13.40;2.07;;;10.60;99.90;;;;;;5190436;28;20202;-71
2021/11/12 10:27:51;;;;;;;8.60;1.97;;;10.50;99.90;;;;;;5172794;28;20203;-74
2021/11/12 10:30:28;;;;;;;8.53;1.50;;;10.50;99.90;;;;;;5189351;28;20293;-72
2021/11/12 10:33:00;;;;;;;7.73;1.80;;;10.50;99.90;;;;;;5189570;28;20646;-70
2021/11/12 10:35:32;;;;;;;15.87;2.03;;;10.50;99.90;;;;;;5188726;28;20225;-68
2021/11/12 10:38:08;;;;;;;12.17;2.40;;;10.50;99.90;;;;;;5156463;28;20522;-70
2021/11/12 10:40:40;;;;;;;15.37;2.40;;;10.50;99.90;;;;;;5189619;28;20225;-67
2021/11/12 10:43:21;;;;;;;10.97;2.43;;;10.50;99.90;;;;;;5190159;28;20334;-69
2021/11/12 10:46:06;;;;;;;10.87;2.30;;;10.50;99.90;;;;;;5189780;28;20257;-69
2021/11/12 10:48:39;;;;;;;12.40;2.30;;;10.40;99.90;;;;;;5188291;28;20183;-69
2021/11/12 10:51:22;;;;;;;6.60;1.77;;;10.30;99.90;;;;;;5171658;28;20203;-70
2021/11/12 10:53:54;;;;;;;13.03;2.40;;;10.40;99.90;;;;;;5188732;28;20202;-69
2021/11/12 10:56:47;;;;;;;7.07;2.33;;;10.30;99.90;;;;;;5171102;28;20214;-68
2021/11/12 10:59:19;;;;;;;12.90;2.83;;;10.30;99.90;;;;;;5171806;28;20207;-68
2021/11/12 11:01:54;;;;;;;11.57;3.27;;;10.30;99.90;;;;;;5155725;28;20211;-69
2021/11/12 11:04:30;;;;;;;10.77;2.93;;;10.30;99.90;;;;;;5171523;28;20238;-68
2021/11/12 11:07:19;;;;;;;12.67;2.73;;;10.30;99.90;;;;;;5171282;28;20630;-69
2021/11/12 11:09:56;;;;;;;13.87;3.17;;;10.30;99.90;;;;;;5188526;28;20249;-69
2021/11/12 11:12:43;;;;;;;10.67;2.93;;;10.20;99.90;;;;;;5188372;28;20213;-67
2021/11/12 11:15:32;;;;;;;11.37;3.00;;;10.20;99.90;;;;;;5189145;28;20505;-68
2021/11/12 11:18:18;;;;;;;12.77;2.27;;;10.20;99.90;;;;;;5172652;28;20294;-68
2021/11/12 11:21:00;;;;;;;16.93;2.53;;;10.20;99.90;;;;;;5170889;28;20210;-69
2021/11/12 11:23:44;;;;;;;15.23;2.50;;;10.10;99.90;;;;;;5187042;28;20238;-70
2021/11/12 11:26:24;;;;;;;16.57;3.13;;;10.10;99.90;;;;;;5187343;28;20222;-69
2021/11/12 11:29:02;;;;;;;15.60;3.50;;;10.00;99.90;;;;;;5171865;28;20223;-70
2021/11/12 11:31:35;;;;;;;19.60;3.17;;;10.10;99.90;;;;;;5188791;28;20215;-70
2021/11/12 11:34:07;;;;;;;13.70;2.40;;;10.10;99.90;;;;;;5188573;28;20697;-67
2021/11/12 11:36:44;;;;;;;19.10;3.07;;;10.10;99.90;;;;;;5170898;28;20214;-68
2021/11/12 11:39:19;;;;;;;13.53;3.27;;;10.20;99.90;;;;;;5170394;28;20230;-70
2021/11/12 11:41:52;;;;;;;9.17;2.40;;;10.20;99.90;;;;;;5170643;28;20630;-69
2021/11/12 11:44:28;;;;;;;10.03;2.63;;;10.30;99.90;;;;;;5187309;28;20245;-71
2021/11/12 11:47:02;;;;;;;7.87;2.30;;;10.40;99.90;;;;;;5188012;28;20670;-68
2021/11/12 11:49:39;;;;;;;10.90;2.77;;;10.50;99.90;;;;;;5188227;28;20230;-68
2021/11/12 11:52:22;;;;;;;12.53;2.97;;;10.50;99.90;;;;;;5187701;28;20215;-71
2021/11/12 11:54:56;;;;;;;13.40;2.43;;;10.70;99.90;;;;;;5169587;28;20555;-73
2021/11/12 11:57:28;;;;;;;12.83;2.40;;;11.00;99.90;;;;;;5187300;28;20211;-68
2021/11/12 12:00:27;;;;;;;12.23;2.13;;;11.40;99.90;;;;;;5170343;28;20238;-70
2021/11/12 12:03:24;;;;;;;8.97;1.97;;;11.60;99.90;;;;;;5167294;28;20196;-68
2021/11/12 12:06:10;;;;;;;16.73;2.20;;;11.70;99.90;;;;;;5180465;28;20521;-67
2021/11/12 12:08:49;;;;;;;12.07;2.13;;;11.80;99.90;;;;;;5187037;28;20198;-69
2021/11/12 12:11:25;;;;;;;13.13;2.20;;;12.00;99.90;;;;;;5186549;28;20235;-71
2021/11/12 12:14:19;;;;;;;11.37;2.67;;;11.90;99.90;;;;;;5171348;28;20207;-67
2021/11/12 12:17:05;;;;;;;13.40;2.83;;;11.50;99.90;;;;;;5188043;28;20253;-70
2021/11/12 12:19:44;;;;;;;12.50;2.67;;;11.30;99.90;;;;;;5172311;28;20525;-67
2021/11/12 13:20:46;;;;;;;11.87;3.27;;;10.40;99.90;;;;;;5170500;28;20560;-67
2021/11/12 13:25:59;;;;;;;9.43;2.50;;;10.30;99.90;;;;;;5185567;28;20206;-67
2021/11/12 13:28:49;;;;;;;9.27;2.90;;;10.20;99.90;;;;;;5173182;28;20187;-75
2021/11/12 13:31:24;;;;;;;12.70;3.20;;;10.20;99.90;;;;;;5189533;28;20209;-70
2021/11/12 13:33:58;;;;;;;9.70;2.00;;;10.10;99.90;;;;;;5166610;28;20316;-71
2021/11/12 13:36:35;;;;;;;6.77;2.40;;;10.00;99.90;;;;;;5209884;28;20206;-70
2021/11/12 13:39:19;;;;;;;13.00;2.70;;;10.00;99.90;;;;;;5210588;28;20230;-70
2021/11/12 13:41:59;;;;;;;7.97;2.07;;;9.90;99.90;;;;;;5193410;28;20202;-67
2021/11/12 13:44:32;;;;;;;11.33;2.33;;;9.80;99.90;;;;;;5210767;28;20229;-66
2021/11/12 13:47:15;;;;;;;6.23;2.20;;;9.90;99.90;;;;;;5210722;28;20209;-68
2021/11/12 13:49:52;;;;;;;8.50;2.63;;;9.90;99.90;;;;;;5193314;28;20230;-67
2021/11/12 13:52:31;;;;;;;11.83;3.20;;;9.80;99.90;;;;;;5201865;28;20208;-65
2021/11/12 13:55:07;;;;;;;10.87;2.97;;;9.80;99.90;;;;;;5189683;28;20226;-65
2021/11/12 13:57:54;;;;;;;9.87;2.93;;;9.80;99.90;;;;;;5190266;28;20191;-66
2021/11/12 14:00:29;;;;;;;15.23;3.23;;;9.70;99.90;;;;;;5172958;28;20672;-67
2021/11/12 14:03:05;;;;;;;12.23;2.60;;;9.70;99.90;;;;;;5189876;28;20202;-65
2021/11/12 14:06:01;;;;;;;9.97;3.17;;;9.60;99.90;;;;;;5189537;28;20525;-67
2021/11/12 14:08:46;;;;;;;10.03;3.03;;;9.60;99.90;;;;;;5171970;28;20249;-66
2021/11/12 14:11:27;;;;;;;11.17;3.10;;;9.50;99.90;;;;;;5189128;28;20237;-66
2021/11/12 14:14:04;;;;;;;8.67;2.87;;;9.50;99.90;;;;;;5189584;28;20226;-66
2021/11/12 14:22:04;;;;;;;12.80;4.63;;;9.40;99.90;;;;;;5189653;28;20187;-67
2021/11/12 14:24:49;;;;;;;19.60;5.20;;;9.50;99.90;;;;;;5187822;28;20225;-66
2021/11/12 14:49:38;;;;;;;11.73;4.00;;;8.90;99.90;;;;;;5169211;28;20291;-67
2021/11/12 14:52:14;;;;;;;12.43;4.57;;;8.80;99.90;;;;;;5161932;28;20258;-69
2021/11/12 14:55:03;;;;;;;21.70;7.40;;;8.70;99.90;;;;;;5151744;28;20581;-71
2021/11/12 14:57:41;;;;;;;22.90;7.03;;;8.60;99.90;;;;;;5151355;28;20231;-68
2021/11/12 15:00:18;;;;;;;23.73;8.00;;;8.50;99.90;;;;;;5136358;28;20215;-68
2021/11/12 15:02:50;;;;;;;28.43;9.40;;;8.40;99.90;;;;;;5168418;28;20647;-68
2021/11/12 15:05:25;;;;;;;25.97;8.17;;;8.30;99.90;;;;;;5119316;28;20235;-67
2021/11/12 15:08:31;;;;;;;21.70;7.40;;;8.20;99.90;;;;;;5167732;28;20227;-64
2021/11/12 15:10:56;;;;;;;13.87;6.17;;;8.10;99.90;;;;;;5163774;28;20219;-73
2021/11/12 15:13:31;;;;;;;15.90;6.13;;;7.90;99.90;;;;;;5177539;28;20223;-66
2021/11/12 15:16:09;;;;;;;18.80;6.33;;;7.80;99.90;;;;;;5171968;28;20236;-64
2021/11/12 15:18:42;;;;;;;19.10;6.40;;;7.70;99.90;;;;;;5172645;28;20321;-66
2021/11/12 15:21:18;;;;;;;16.87;5.57;;;7.60;99.90;;;;;;5188642;28;20524;-68
2021/11/12 15:24:14;;;;;;;19.33;5.57;;;7.50;99.90;;;;;;5188190;28;20249;-69
2021/11/12 15:29:28;;;;;;;16.80;5.77;;;7.40;99.90;;;;;;5184544;28;20242;-66
2021/11/12 15:32:18;;;;;;;14.60;6.13;;;7.30;99.90;;;;;;5192108;28;20200;-69
2021/11/12 15:34:54;;;;;;;18.43;6.17;;;7.20;99.90;;;;;;5195349;28;20223;-69
2021/11/12 15:48:09;;;;;;;12.87;5.30;;;6.80;99.90;;;;;;5195331;28;20533;-57
2021/11/12 15:53:42;;;;;;;14.73;5.97;;;6.60;99.90;;;;;;5193639;28;20191;-60
2021/11/12 16:07:23;;;;;;;22.10;9.53;;;6.40;99.90;;;;;;5195605;28;20206;-57
2021/11/12 16:18:02;;;;;;;28.50;10.53;;;6.20;99.90;;;;;;5178575;28;20216;-61
2021/11/12 16:25:42;;;;;;;33.50;13.50;;;6.00;99.90;;;;;;5193395;28;20234;-68
2021/11/12 16:28:21;;;;;;;34.87;14.97;;;6.00;99.90;;;;;;5175337;28;20218;-68
2021/11/12 16:30:59;;;;;;;36.83;16.60;;;6.00;99.90;;;;;;5193427;28;20260;-68
2021/11/12 16:33:34;;;;;;;42.93;20.00;;;5.90;99.90;;;;;;5192479;28;20202;-70
2021/11/12 16:36:09;;;;;;;43.10;21.03;;;5.90;99.90;;;;;;5196018;28;20214;-68
2021/11/12 16:38:42;;;;;;;56.70;22.40;;;5.80;99.90;;;;;;5182057;28;20704;-68
2021/11/12 16:41:21;;;;;;;50.70;22.47;;;5.80;99.90;;;;;;5145006;28;20225;-71
2021/11/12 16:44:08;;;;;;;59.00;24.87;;;5.80;99.90;;;;;;5178768;28;20256;-69
2021/11/12 16:54:59;;;;;;;61.40;27.97;;;5.50;99.90;;;;;;5173674;28;20220;-65
2021/11/12 17:01:17;;;;;;;56.67;24.37;;;5.40;99.90;;;;;;5191257;28;20202;-71
2021/11/12 17:44:54;;;;;;;83.43;33.50;;;5.00;99.90;;;;;;5185637;28;20199;-69
2021/11/12 17:47:26;;;;;;;71.07;30.27;;;5.10;99.90;;;;;;5192540;28;20250;-69
2021/11/12 17:50:07;;;;;;;75.87;30.47;;;5.20;99.90;;;;;;5202532;28;20203;-70
2021/11/12 18:21:32;;;;;;;32.77;13.60;;;5.30;99.90;;;;;;5174776;28;20197;-67
2021/11/12 21:44:27;;;;;;;52.67;28.93;;;5.70;99.90;;;;;;5169806;28;20234;-68
2021/11/12 21:47:00;;;;;;;55.10;29.77;;;5.80;99.90;;;;;;5170251;28;20235;-65
2021/11/12 21:49:33;;;;;;;58.00;30.77;;;5.80;99.90;;;;;;5152837;28;20215;-66
2021/11/12 21:52:07;;;;;;;59.93;32.33;;;5.80;99.90;;;;;;5169693;28;20211;-68
2021/11/12 21:54:41;;;;;;;63.53;34.03;;;5.80;99.90;;;;;;5152831;28;20222;-64
2021/11/12 21:57:13;;;;;;;65.90;34.80;;;5.80;99.90;;;;;;5153068;28;20221;-68
2021/11/12 21:59:45;;;;;;;58.60;33.07;;;5.80;99.90;;;;;;5153019;28;20222;-68
2021/11/12 22:02:20;;;;;;;64.87;35.10;;;5.80;99.90;;;;;;5169963;28;20203;-65
2021/11/12 22:04:52;;;;;;;52.63;29.23;;;5.80;99.90;;;;;;5152782;28;20242;-66
2021/11/12 22:07:24;;;;;;;56.27;31.70;;;5.80;99.90;;;;;;5169400;28;20227;-65
2021/11/12 22:09:59;;;;;;;52.27;30.20;;;5.80;99.90;;;;;;5152759;28;20522;-66
2021/11/12 22:12:31;;;;;;;56.23;32.43;;;5.80;99.90;;;;;;5170313;28;20230;-67
2021/11/12 22:15:05;;;;;;;49.73;29.30;;;5.80;99.90;;;;;;5169785;28;20203;-66
2021/11/12 22:17:37;;;;;;;65.37;34.17;;;5.80;99.90;;;;;;5169524;28;20214;-68
2021/11/12 22:20:11;;;;;;;55.53;31.53;;;5.70;99.90;;;;;;5169668;28;20214;-67
2021/11/12 22:22:45;;;;;;;57.50;32.03;;;5.70;99.90;;;;;;5120759;28;20257;-67
2021/11/12 22:25:18;;;;;;;70.17;34.20;;;5.70;99.90;;;;;;5169151;28;20215;-68
2021/11/12 22:27:50;;;;;;;64.80;34.40;;;5.70;99.90;;;;;;5168952;28;20246;-65
2021/11/12 22:30:23;;;;;;;68.77;35.73;;;5.70;99.90;;;;;;5151991;28;20200;-65
2021/11/12 22:32:55;;;;;;;78.83;38.80;;;5.60;99.90;;;;;;5152237;28;20647;-66
2021/11/12 22:35:27;;;;;;;74.50;37.10;;;5.60;99.90;;;;;;5169154;28;20522;-65
2021/11/12 22:37:59;;;;;;;76.70;39.63;;;5.60;99.90;;;;;;5151633;28;20239;-67
2021/11/12 22:40:32;;;;;;;68.90;35.20;;;5.60;99.90;;;;;;5151947;28;20207;-68
2021/11/12 22:43:06;;;;;;;82.63;40.97;;;5.60;99.90;;;;;;5168812;28;20239;-67
2021/11/12 22:45:40;;;;;;;92.37;44.97;;;5.60;99.90;;;;;;5168468;28;20206;-68
2021/11/12 22:48:13;;;;;;;88.30;44.63;;;5.60;99.90;;;;;;5135633;28;20305;-70
2021/11/12 22:50:48;;;;;;;86.90;43.30;;;5.60;99.90;;;;;;5151678;28;20207;-64
2021/11/12 22:53:20;;;;;;;90.70;44.30;;;5.50;99.90;;;;;;5151637;28;20241;-70
2021/11/12 22:55:53;;;;;;;81.30;40.97;;;5.50;99.90;;;;;;5168971;28;20207;-71
2021/11/12 22:58:25;;;;;;;80.67;40.37;;;5.50;99.90;;;;;;5168891;28;20521;-68
2021/11/12 23:01:03;;;;;;;69.10;37.63;;;5.50;99.90;;;;;;5135752;28;20211;-67
2021/11/12 23:03:38;;;;;;;74.10;37.53;;;5.50;99.90;;;;;;5168658;28;20625;-65
2021/11/12 23:06:10;;;;;;;70.20;37.40;;;5.50;99.90;;;;;;5151831;28;20249;-68
2021/11/12 23:08:42;;;;;;;83.93;38.90;;;5.50;99.90;;;;;;5168192;28;20231;-67
2021/11/12 23:11:15;;;;;;;80.37;39.33;;;5.50;99.90;;;;;;5168479;28;20207;-67
2021/11/12 23:13:54;;;;;;;86.27;40.77;;;5.50;99.90;;;;;;5168672;28;20638;-68
2021/11/12 23:16:26;;;;;;;90.10;42.30;;;5.50;99.90;;;;;;5151948;28;20195;-66
2021/11/12 23:18:58;;;;;;;89.23;42.53;;;5.50;99.90;;;;;;5152251;28;20242;-68
2021/11/12 23:21:31;;;;;;;118.50;44.23;;;5.50;99.90;;;;;;5152099;28;20526;-65
2021/11/12 23:24:03;;;;;;;84.13;41.23;;;5.50;99.90;;;;;;5168458;28;20242;-68
2021/11/12 23:26:35;;;;;;;84.23;41.73;;;5.50;99.90;;;;;;5168321;28;20223;-65
2021/11/12 23:29:07;;;;;;;101.73;41.83;;;5.50;99.90;;;;;;5167880;28;20235;-65
2021/11/12 23:31:39;;;;;;;110.13;43.30;;;5.50;99.90;;;;;;5151083;28;20203;-68
2021/11/12 23:34:11;;;;;;;113.63;43.53;;;5.50;99.90;;;;;;5167771;28;20297;-66